sensor_id;sensor_type;location;lat;lon;timestamp;P1;durP1;ratioP1;P2;durP2;ratioP2
6119;SDS011;3090;52.496;13.298;2022-10-31T00:00:21;1.75;;;1.65;;
6119;SDS011;3090;52.496;13.298;2022-10-31T00:03:09;1.00;;;1.00;;
6119;SDS011;3090;52.496;13.298;2022-10-31T00:06:01;0.57;;;0.57;;
6119;SDS011;3090;52.496;13.298;2022-10-31T00:08:52;1.50;;;1.40;;
6119;SDS011;3090;52.496;13.298;2022-10-31T00:11:39;2.78;;;2.47;;
6119;SDS011;3090;52.496;13.298;2022-10-31T00:14:25;0.98;;;0.98;;
6119;SDS011;3090;52.496;13.298;2022-10-31T00:17:12;0.93;;;0.93;;
6119;SDS011;3090;52.496;13.298;2022-10-31T00:20:00;2.35;;;2.15;;
6119;SDS011;3090;52.496;13.298;2022-10-31T00:22:46;4.10;;;1.75;;
6119;SDS011;3090;52.496;13.298;2022-10-31T00:25:36;6.55;;;1.70;;
6119;SDS011;3090;52.496;13.298;2022-10-31T00:28:23;1.73;;;1.63;;
6119;SDS011;3090;52.496;13.298;2022-10-31T00:31:10;0.93;;;0.93;;
6119;SDS011;3090;52.496;13.298;2022-10-31T00:33:57;3.28;;;1.73;;
6119;SDS011;3090;52.496;13.298;2022-10-31T00:36:45;9.55;;;1.52;;
6119;SDS011;3090;52.496;13.298;2022-10-31T00:39:31;2.20;;;2.10;;
6119;SDS011;3090;52.496;13.298;2022-10-31T00:42:18;1.98;;;1.85;;
6119;SDS011;3090;52.496;13.298;2022-10-31T00:45:05;0.90;;;0.90;;
6119;SDS011;3090;52.496;13.298;2022-10-31T00:47:51;0.80;;;0.80;;
6119;SDS011;3090;52.496;13.298;2022-10-31T00:50:38;1.00;;;1.00;;
6119;SDS011;3090;52.496;13.298;2022-10-31T00:53:26;1.55;;;1.40;;
6119;SDS011;3090;52.496;13.298;2022-10-31T00:56:13;2.30;;;2.05;;
6119;SDS011;3090;52.496;13.298;2022-10-31T00:58:59;2.17;;;2.08;;
6119;SDS011;3090;52.496;13.298;2022-10-31T01:01:46;1.73;;;1.73;;
6119;SDS011;3090;52.496;13.298;2022-10-31T01:04:32;1.60;;;1.55;;
6119;SDS011;3090;52.496;13.298;2022-10-31T01:07:19;1.20;;;1.10;;
6119;SDS011;3090;52.496;13.298;2022-10-31T01:10:08;1.40;;;1.30;;
6119;SDS011;3090;52.496;13.298;2022-10-31T01:12:54;9.75;;;2.63;;
6119;SDS011;3090;52.496;13.298;2022-10-31T01:15:41;0.82;;;0.82;;
6119;SDS011;3090;52.496;13.298;2022-10-31T01:18:27;0.90;;;0.90;;
6119;SDS011;3090;52.496;13.298;2022-10-31T01:21:15;1.17;;;1.17;;
6119;SDS011;3090;52.496;13.298;2022-10-31T01:24:02;1.02;;;1.02;;
6119;SDS011;3090;52.496;13.298;2022-10-31T01:26:50;1.65;;;1.00;;
6119;SDS011;3090;52.496;13.298;2022-10-31T01:29:37;8.68;;;1.00;;
6119;SDS011;3090;52.496;13.298;2022-10-31T01:32:23;0.95;;;0.95;;
6119;SDS011;3090;52.496;13.298;2022-10-31T01:35:10;1.80;;;1.70;;
6119;SDS011;3090;52.496;13.298;2022-10-31T01:37:56;1.10;;;1.10;;
6119;SDS011;3090;52.496;13.298;2022-10-31T01:40:43;1.15;;;1.15;;
6119;SDS011;3090;52.496;13.298;2022-10-31T01:43:42;0.98;;;0.98;;
6119;SDS011;3090;52.496;13.298;2022-10-31T01:46:29;14.05;;;2.75;;
6119;SDS011;3090;52.496;13.298;2022-10-31T01:49:19;0.75;;;0.75;;
6119;SDS011;3090;52.496;13.298;2022-10-31T01:52:09;4.78;;;1.95;;
6119;SDS011;3090;52.496;13.298;2022-10-31T01:54:58;1.77;;;1.30;;
6119;SDS011;3090;52.496;13.298;2022-10-31T01:57:46;1.23;;;1.23;;
6119;SDS011;3090;52.496;13.298;2022-10-31T02:00:35;0.88;;;0.88;;
6119;SDS011;3090;52.496;13.298;2022-10-31T02:03:22;0.73;;;0.73;;
6119;SDS011;3090;52.496;13.298;2022-10-31T02:06:10;1.25;;;1.15;;
6119;SDS011;3090;52.496;13.298;2022-10-31T02:09:03;0.93;;;0.93;;
6119;SDS011;3090;52.496;13.298;2022-10-31T02:11:51;1.42;;;0.93;;
6119;SDS011;3090;52.496;13.298;2022-10-31T02:14:38;2.97;;;1.67;;
6119;SDS011;3090;52.496;13.298;2022-10-31T02:17:26;2.30;;;2.20;;
6119;SDS011;3090;52.496;13.298;2022-10-31T02:20:14;0.85;;;0.85;;
6119;SDS011;3090;52.496;13.298;2022-10-31T02:29:40;1.33;;;1.27;;
6119;SDS011;3090;52.496;13.298;2022-10-31T02:32:37;1.00;;;1.00;;
6119;SDS011;3090;52.496;13.298;2022-10-31T02:35:27;2.78;;;1.45;;
6119;SDS011;3090;52.496;13.298;2022-10-31T02:38:19;0.88;;;0.88;;
6119;SDS011;3090;52.496;13.298;2022-10-31T02:41:10;1.67;;;1.25;;
6119;SDS011;3090;52.496;13.298;2022-10-31T02:44:00;0.75;;;0.75;;
6119;SDS011;3090;52.496;13.298;2022-10-31T02:46:51;1.30;;;1.30;;
6119;SDS011;3090;52.496;13.298;2022-10-31T02:49:42;2.08;;;1.92;;
6119;SDS011;3090;52.496;13.298;2022-10-31T02:52:32;1.00;;;1.00;;
6119;SDS011;3090;52.496;13.298;2022-10-31T02:58:24;1.00;;;1.00;;
6119;SDS011;3090;52.496;13.298;2022-10-31T03:01:19;0.63;;;0.63;;
6119;SDS011;3090;52.496;13.298;2022-10-31T03:07:17;1.27;;;1.20;;
6119;SDS011;3090;52.496;13.298;2022-10-31T03:10:08;2.22;;;2.13;;
6119;SDS011;3090;52.496;13.298;2022-10-31T03:13:01;0.65;;;0.65;;
6119;SDS011;3090;52.496;13.298;2022-10-31T03:15:49;0.77;;;0.77;;
6119;SDS011;3090;52.496;13.298;2022-10-31T03:18:37;1.38;;;0.70;;
6119;SDS011;3090;52.496;13.298;2022-10-31T03:21:26;0.95;;;0.95;;
6119;SDS011;3090;52.496;13.298;2022-10-31T03:24:15;0.93;;;0.93;;
6119;SDS011;3090;52.496;13.298;2022-10-31T03:27:02;2.45;;;1.88;;
6119;SDS011;3090;52.496;13.298;2022-10-31T03:29:50;1.42;;;1.33;;
6119;SDS011;3090;52.496;13.298;2022-10-31T03:32:38;1.30;;;0.70;;
6119;SDS011;3090;52.496;13.298;2022-10-31T03:35:26;0.82;;;0.82;;
6119;SDS011;3090;52.496;13.298;2022-10-31T03:38:13;0.60;;;0.60;;
6119;SDS011;3090;52.496;13.298;2022-10-31T03:41:02;0.90;;;0.70;;
6119;SDS011;3090;52.496;13.298;2022-10-31T03:43:52;2.40;;;1.05;;
6119;SDS011;3090;52.496;13.298;2022-10-31T03:46:39;0.77;;;0.77;;
6119;SDS011;3090;52.496;13.298;2022-10-31T03:49:26;0.60;;;0.60;;
6119;SDS011;3090;52.496;13.298;2022-10-31T03:52:15;0.95;;;0.82;;
6119;SDS011;3090;52.496;13.298;2022-10-31T03:55:05;2.22;;;1.10;;
6119;SDS011;3090;52.496;13.298;2022-10-31T03:57:55;1.60;;;1.50;;
6119;SDS011;3090;52.496;13.298;2022-10-31T04:00:44;1.55;;;1.45;;
6119;SDS011;3090;52.496;13.298;2022-10-31T04:03:31;0.68;;;0.68;;
6119;SDS011;3090;52.496;13.298;2022-10-31T04:06:20;1.17;;;1.17;;
6119;SDS011;3090;52.496;13.298;2022-10-31T04:09:07;1.60;;;1.33;;
6119;SDS011;3090;52.496;13.298;2022-10-31T04:11:56;1.42;;;1.15;;
6119;SDS011;3090;52.496;13.298;2022-10-31T04:14:45;2.58;;;0.90;;
6119;SDS011;3090;52.496;13.298;2022-10-31T04:17:32;0.90;;;0.90;;
6119;SDS011;3090;52.496;13.298;2022-10-31T04:20:28;0.80;;;0.80;;
6119;SDS011;3090;52.496;13.298;2022-10-31T04:23:17;1.23;;;1.23;;
6119;SDS011;3090;52.496;13.298;2022-10-31T04:26:04;13.43;;;1.38;;
6119;SDS011;3090;52.496;13.298;2022-10-31T04:28:51;1.08;;;1.08;;
6119;SDS011;3090;52.496;13.298;2022-10-31T04:31:38;0.75;;;0.75;;
6119;SDS011;3090;52.496;13.298;2022-10-31T04:34:25;0.52;;;0.52;;
6119;SDS011;3090;52.496;13.298;2022-10-31T04:37:11;0.85;;;0.85;;
6119;SDS011;3090;52.496;13.298;2022-10-31T04:39:58;0.40;;;0.40;;
6119;SDS011;3090;52.496;13.298;2022-10-31T04:42:44;0.65;;;0.65;;
6119;SDS011;3090;52.496;13.298;2022-10-31T04:45:31;0.50;;;0.50;;
6119;SDS011;3090;52.496;13.298;2022-10-31T04:48:19;0.70;;;0.70;;
6119;SDS011;3090;52.496;13.298;2022-10-31T04:51:05;1.38;;;1.38;;
6119;SDS011;3090;52.496;13.298;2022-10-31T04:53:52;9.00;;;1.38;;
6119;SDS011;3090;52.496;13.298;2022-10-31T04:56:38;10.98;;;1.00;;
6119;SDS011;3090;52.496;13.298;2022-10-31T04:59:25;1.80;;;1.20;;
6119;SDS011;3090;52.496;13.298;2022-10-31T05:02:11;0.90;;;0.90;;
6119;SDS011;3090;52.496;13.298;2022-10-31T05:04:59;1.20;;;1.10;;
6119;SDS011;3090;52.496;13.298;2022-10-31T05:07:46;1.90;;;1.80;;
6119;SDS011;3090;52.496;13.298;2022-10-31T05:10:33;3.55;;;1.50;;
6119;SDS011;3090;52.496;13.298;2022-10-31T05:13:20;0.75;;;0.45;;
6119;SDS011;3090;52.496;13.298;2022-10-31T05:16:06;0.90;;;0.90;;
6119;SDS011;3090;52.496;13.298;2022-10-31T05:18:53;1.42;;;1.30;;
6119;SDS011;3090;52.496;13.298;2022-10-31T05:21:41;0.52;;;0.52;;
6119;SDS011;3090;52.496;13.298;2022-10-31T05:24:27;12.27;;;1.00;;
6119;SDS011;3090;52.496;13.298;2022-10-31T05:27:14;1.17;;;1.17;;
6119;SDS011;3090;52.496;13.298;2022-10-31T05:30:00;1.60;;;1.50;;
6119;SDS011;3090;52.496;13.298;2022-10-31T05:32:47;0.52;;;0.52;;
6119;SDS011;3090;52.496;13.298;2022-10-31T05:35:34;2.35;;;2.15;;
6119;SDS011;3090;52.496;13.298;2022-10-31T05:38:22;1.10;;;1.00;;
6119;SDS011;3090;52.496;13.298;2022-10-31T05:41:08;1.17;;;1.17;;
6119;SDS011;3090;52.496;13.298;2022-10-31T05:43:55;1.83;;;1.73;;
6119;SDS011;3090;52.496;13.298;2022-10-31T05:46:42;1.70;;;1.60;;
6119;SDS011;3090;52.496;13.298;2022-10-31T05:49:28;12.48;;;0.60;;
6119;SDS011;3090;52.496;13.298;2022-10-31T05:52:15;1.13;;;1.13;;
6119;SDS011;3090;52.496;13.298;2022-10-31T05:55:03;0.98;;;0.98;;
6119;SDS011;3090;52.496;13.298;2022-10-31T05:57:49;4.97;;;0.90;;
6119;SDS011;3090;52.496;13.298;2022-10-31T06:00:36;1.30;;;1.30;;
6119;SDS011;3090;52.496;13.298;2022-10-31T06:03:23;1.58;;;1.48;;
6119;SDS011;3090;52.496;13.298;2022-10-31T06:06:09;0.77;;;0.77;;
6119;SDS011;3090;52.496;13.298;2022-10-31T06:08:56;0.85;;;0.85;;
6119;SDS011;3090;52.496;13.298;2022-10-31T06:11:43;5.70;;;0.70;;
6119;SDS011;3090;52.496;13.298;2022-10-31T06:14:30;2.22;;;2.13;;
6119;SDS011;3090;52.496;13.298;2022-10-31T06:17:17;3.63;;;2.25;;
6119;SDS011;3090;52.496;13.298;2022-10-31T06:20:04;2.17;;;2.08;;
6119;SDS011;3090;52.496;13.298;2022-10-31T06:22:50;1.02;;;1.02;;
6119;SDS011;3090;52.496;13.298;2022-10-31T06:25:37;0.77;;;0.77;;
6119;SDS011;3090;52.496;13.298;2022-10-31T06:28:25;1.67;;;1.55;;
6119;SDS011;3090;52.496;13.298;2022-10-31T06:31:11;0.98;;;0.98;;
6119;SDS011;3090;52.496;13.298;2022-10-31T06:33:58;1.10;;;1.10;;
6119;SDS011;3090;52.496;13.298;2022-10-31T06:36:45;1.38;;;1.00;;
6119;SDS011;3090;52.496;13.298;2022-10-31T06:39:31;0.47;;;0.47;;
6119;SDS011;3090;52.496;13.298;2022-10-31T06:42:18;0.65;;;0.65;;
6119;SDS011;3090;52.496;13.298;2022-10-31T06:45:06;1.13;;;1.13;;
6119;SDS011;3090;52.496;13.298;2022-10-31T06:47:53;0.43;;;0.43;;
6119;SDS011;3090;52.496;13.298;2022-10-31T06:50:40;0.77;;;0.77;;
6119;SDS011;3090;52.496;13.298;2022-10-31T06:53:26;1.50;;;1.50;;
6119;SDS011;3090;52.496;13.298;2022-10-31T06:56:14;0.73;;;0.65;;
6119;SDS011;3090;52.496;13.298;2022-10-31T06:59:01;0.50;;;0.50;;
6119;SDS011;3090;52.496;13.298;2022-10-31T07:01:49;4.95;;;2.15;;
6119;SDS011;3090;52.496;13.298;2022-10-31T07:04:35;3.42;;;1.27;;
6119;SDS011;3090;52.496;13.298;2022-10-31T07:07:22;0.52;;;0.52;;
6119;SDS011;3090;52.496;13.298;2022-10-31T07:10:08;1.70;;;1.20;;
6119;SDS011;3090;52.496;13.298;2022-10-31T07:12:55;1.40;;;1.30;;
6119;SDS011;3090;52.496;13.298;2022-10-31T07:15:42;1.25;;;1.08;;
6119;SDS011;3090;52.496;13.298;2022-10-31T07:18:30;1.73;;;1.55;;
6119;SDS011;3090;52.496;13.298;2022-10-31T07:21:17;0.52;;;0.52;;
6119;SDS011;3090;52.496;13.298;2022-10-31T07:24:03;0.70;;;0.70;;
6119;SDS011;3090;52.496;13.298;2022-10-31T07:26:50;1.17;;;1.08;;
6119;SDS011;3090;52.496;13.298;2022-10-31T07:29:37;1.40;;;1.30;;
6119;SDS011;3090;52.496;13.298;2022-10-31T07:32:23;1.58;;;1.58;;
6119;SDS011;3090;52.496;13.298;2022-10-31T07:35:12;1.35;;;1.35;;
6119;SDS011;3090;52.496;13.298;2022-10-31T07:38:05;0.98;;;0.98;;
6119;SDS011;3090;52.496;13.298;2022-10-31T07:40:52;1.08;;;1.02;;
6119;SDS011;3090;52.496;13.298;2022-10-31T07:43:39;7.88;;;1.40;;
6119;SDS011;3090;52.496;13.298;2022-10-31T07:46:25;2.53;;;2.08;;
6119;SDS011;3090;52.496;13.298;2022-10-31T07:49:12;1.77;;;1.50;;
6119;SDS011;3090;52.496;13.298;2022-10-31T07:52:00;0.90;;;0.90;;
6119;SDS011;3090;52.496;13.298;2022-10-31T07:54:46;1.33;;;1.33;;
6119;SDS011;3090;52.496;13.298;2022-10-31T07:57:33;2.65;;;2.53;;
6119;SDS011;3090;52.496;13.298;2022-10-31T08:00:20;2.45;;;1.58;;
6119;SDS011;3090;52.496;13.298;2022-10-31T08:03:07;1.83;;;1.73;;
6119;SDS011;3090;52.496;13.298;2022-10-31T08:05:54;1.45;;;1.45;;
6119;SDS011;3090;52.496;13.298;2022-10-31T08:08:42;0.98;;;0.90;;
6119;SDS011;3090;52.496;13.298;2022-10-31T08:11:28;3.28;;;1.20;;
6119;SDS011;3090;52.496;13.298;2022-10-31T08:14:15;1.63;;;1.25;;
6119;SDS011;3090;52.496;13.298;2022-10-31T08:17:01;1.63;;;1.50;;
6119;SDS011;3090;52.496;13.298;2022-10-31T08:19:48;1.80;;;1.70;;
6119;SDS011;3090;52.496;13.298;2022-10-31T08:22:34;1.25;;;1.25;;
6119;SDS011;3090;52.496;13.298;2022-10-31T08:25:22;1.42;;;1.40;;
6119;SDS011;3090;52.496;13.298;2022-10-31T08:28:09;3.70;;;2.63;;
6119;SDS011;3090;52.496;13.298;2022-10-31T08:30:57;0.93;;;0.93;;
6119;SDS011;3090;52.496;13.298;2022-10-31T08:33:44;0.80;;;0.80;;
6119;SDS011;3090;52.496;13.298;2022-10-31T08:36:30;2.83;;;2.72;;
6119;SDS011;3090;52.496;13.298;2022-10-31T08:39:17;1.75;;;1.65;;
6119;SDS011;3090;52.496;13.298;2022-10-31T08:42:04;2.80;;;1.92;;
6119;SDS011;3090;52.496;13.298;2022-10-31T08:44:51;1.65;;;1.65;;
6119;SDS011;3090;52.496;13.298;2022-10-31T08:47:37;1.50;;;1.45;;
6119;SDS011;3090;52.496;13.298;2022-10-31T08:50:24;1.90;;;1.80;;
6119;SDS011;3090;52.496;13.298;2022-10-31T08:53:11;7.35;;;2.78;;
6119;SDS011;3090;52.496;13.298;2022-10-31T08:55:58;1.88;;;1.73;;
6119;SDS011;3090;52.496;13.298;2022-10-31T08:58:46;7.20;;;2.38;;
6119;SDS011;3090;52.496;13.298;2022-10-31T09:01:33;1.13;;;1.13;;
6119;SDS011;3090;52.496;13.298;2022-10-31T09:04:19;2.20;;;2.10;;
6119;SDS011;3090;52.496;13.298;2022-10-31T09:07:06;2.88;;;2.60;;
6119;SDS011;3090;52.496;13.298;2022-10-31T09:09:52;1.55;;;1.20;;
6119;SDS011;3090;52.496;13.298;2022-10-31T09:12:40;8.40;;;5.60;;
6119;SDS011;3090;52.496;13.298;2022-10-31T09:15:30;3.55;;;1.25;;
6119;SDS011;3090;52.496;13.298;2022-10-31T09:18:18;2.13;;;1.45;;
6119;SDS011;3090;52.496;13.298;2022-10-31T09:21:06;1.35;;;1.35;;
6119;SDS011;3090;52.496;13.298;2022-10-31T09:23:53;2.30;;;2.20;;
6119;SDS011;3090;52.496;13.298;2022-10-31T09:26:40;2.40;;;2.25;;
6119;SDS011;3090;52.496;13.298;2022-10-31T09:29:26;1.00;;;1.00;;
6119;SDS011;3090;52.496;13.298;2022-10-31T09:32:14;1.73;;;1.65;;
6119;SDS011;3090;52.496;13.298;2022-10-31T09:35:01;3.58;;;1.55;;
6119;SDS011;3090;52.496;13.298;2022-10-31T09:37:48;10.88;;;2.15;;
6119;SDS011;3090;52.496;13.298;2022-10-31T09:40:40;1.63;;;1.52;;
6119;SDS011;3090;52.496;13.298;2022-10-31T09:43:29;4.28;;;1.90;;
6119;SDS011;3090;52.496;13.298;2022-10-31T09:46:20;1.50;;;1.42;;
6119;SDS011;3090;52.496;13.298;2022-10-31T09:49:19;1.83;;;1.75;;
6119;SDS011;3090;52.496;13.298;2022-10-31T09:52:10;2.25;;;2.15;;
6119;SDS011;3090;52.496;13.298;2022-10-31T09:54:58;1.00;;;1.00;;
6119;SDS011;3090;52.496;13.298;2022-10-31T09:57:45;12.13;;;2.88;;
6119;SDS011;3090;52.496;13.298;2022-10-31T10:00:32;14.05;;;2.22;;
6119;SDS011;3090;52.496;13.298;2022-10-31T10:03:22;1.63;;;1.63;;
6119;SDS011;3090;52.496;13.298;2022-10-31T10:06:14;3.28;;;3.08;;
6119;SDS011;3090;52.496;13.298;2022-10-31T10:09:01;3.70;;;3.40;;
6119;SDS011;3090;52.496;13.298;2022-10-31T10:11:51;2.17;;;2.08;;
6119;SDS011;3090;52.496;13.298;2022-10-31T10:14:44;2.83;;;2.58;;
6119;SDS011;3090;52.496;13.298;2022-10-31T10:17:35;2.53;;;2.33;;
6119;SDS011;3090;52.496;13.298;2022-10-31T10:20:26;2.83;;;2.72;;
6119;SDS011;3090;52.496;13.298;2022-10-31T10:23:35;2.42;;;2.33;;
6119;SDS011;3090;52.496;13.298;2022-10-31T10:26:24;2.53;;;2.33;;
6119;SDS011;3090;52.496;13.298;2022-10-31T10:29:17;4.93;;;2.03;;
6119;SDS011;3090;52.496;13.298;2022-10-31T10:32:09;1.92;;;1.83;;
6119;SDS011;3090;52.496;13.298;2022-10-31T10:34:57;4.50;;;2.15;;
6119;SDS011;3090;52.496;13.298;2022-10-31T10:37:46;3.53;;;1.60;;
6119;SDS011;3090;52.496;13.298;2022-10-31T10:40:36;4.07;;;2.65;;
6119;SDS011;3090;52.496;13.298;2022-10-31T10:43:24;2.55;;;2.17;;
6119;SDS011;3090;52.496;13.298;2022-10-31T10:46:16;3.30;;;2.03;;
6119;SDS011;3090;52.496;13.298;2022-10-31T10:49:22;1.80;;;1.70;;
6119;SDS011;3090;52.496;13.298;2022-10-31T10:52:14;3.30;;;2.58;;
6119;SDS011;3090;52.496;13.298;2022-10-31T10:55:06;2.78;;;2.55;;
6119;SDS011;3090;52.496;13.298;2022-10-31T10:58:00;2.15;;;1.88;;
6119;SDS011;3090;52.496;13.298;2022-10-31T11:00:47;2.83;;;2.72;;
6119;SDS011;3090;52.496;13.298;2022-10-31T11:03:34;1.98;;;1.75;;
6119;SDS011;3090;52.496;13.298;2022-10-31T11:06:22;2.42;;;2.33;;
6119;SDS011;3090;52.496;13.298;2022-10-31T11:09:11;1.73;;;1.63;;
6119;SDS011;3090;52.496;13.298;2022-10-31T11:11:57;2.10;;;2.00;;
6119;SDS011;3090;52.496;13.298;2022-10-31T11:14:46;17.20;;;2.38;;
6119;SDS011;3090;52.496;13.298;2022-10-31T11:17:34;2.35;;;2.15;;
6119;SDS011;3090;52.496;13.298;2022-10-31T11:20:24;1.90;;;1.80;;
6119;SDS011;3090;52.496;13.298;2022-10-31T11:23:17;2.22;;;2.13;;
6119;SDS011;3090;52.496;13.298;2022-10-31T11:26:04;2.53;;;2.42;;
6119;SDS011;3090;52.496;13.298;2022-10-31T11:28:59;3.17;;;2.92;;
6119;SDS011;3090;52.496;13.298;2022-10-31T11:31:50;2.80;;;1.85;;
6119;SDS011;3090;52.496;13.298;2022-10-31T11:34:37;4.43;;;2.60;;
6119;SDS011;3090;52.496;13.298;2022-10-31T11:37:25;2.55;;;2.35;;
6119;SDS011;3090;52.496;13.298;2022-10-31T11:40:15;2.55;;;2.38;;
6119;SDS011;3090;52.496;13.298;2022-10-31T11:43:03;3.55;;;3.45;;
6119;SDS011;3090;52.496;13.298;2022-10-31T11:45:49;2.78;;;2.05;;
6119;SDS011;3090;52.496;13.298;2022-10-31T11:48:37;19.20;;;2.88;;
6119;SDS011;3090;52.496;13.298;2022-10-31T11:51:25;5.05;;;3.85;;
6119;SDS011;3090;52.496;13.298;2022-10-31T11:54:17;4.28;;;3.67;;
6119;SDS011;3090;52.496;13.298;2022-10-31T11:57:05;4.10;;;1.95;;
6119;SDS011;3090;52.496;13.298;2022-10-31T11:59:52;1.92;;;1.77;;
6119;SDS011;3090;52.496;13.298;2022-10-31T12:02:39;1.50;;;1.42;;
6119;SDS011;3090;52.496;13.298;2022-10-31T12:05:27;2.50;;;2.25;;
6119;SDS011;3090;52.496;13.298;2022-10-31T12:08:16;2.05;;;1.95;;
6119;SDS011;3090;52.496;13.298;2022-10-31T12:11:04;2.78;;;2.65;;
6119;SDS011;3090;52.496;13.298;2022-10-31T12:13:59;4.32;;;2.55;;
6119;SDS011;3090;52.496;13.298;2022-10-31T12:16:48;3.72;;;2.33;;
6119;SDS011;3090;52.496;13.298;2022-10-31T12:19:38;11.82;;;2.30;;
6119;SDS011;3090;52.496;13.298;2022-10-31T12:22:32;6.80;;;2.50;;
6119;SDS011;3090;52.496;13.298;2022-10-31T12:25:24;1.58;;;1.48;;
6119;SDS011;3090;52.496;13.298;2022-10-31T12:28:19;1.30;;;1.20;;
6119;SDS011;3090;52.496;13.298;2022-10-31T12:31:12;1.88;;;1.77;;
6119;SDS011;3090;52.496;13.298;2022-10-31T12:34:06;2.67;;;2.47;;
6119;SDS011;3090;52.496;13.298;2022-10-31T12:36:58;3.55;;;3.25;;
6119;SDS011;3090;52.496;13.298;2022-10-31T12:39:50;4.18;;;2.78;;
6119;SDS011;3090;52.496;13.298;2022-10-31T12:42:44;1.45;;;1.42;;
6119;SDS011;3090;52.496;13.298;2022-10-31T12:45:42;1.85;;;1.80;;
6119;SDS011;3090;52.496;13.298;2022-10-31T12:48:38;1.50;;;1.40;;
6119;SDS011;3090;52.496;13.298;2022-10-31T12:51:33;1.77;;;1.38;;
6119;SDS011;3090;52.496;13.298;2022-10-31T12:54:29;7.88;;;2.30;;
6119;SDS011;3090;52.496;13.298;2022-10-31T12:57:22;6.35;;;3.42;;
6119;SDS011;3090;52.496;13.298;2022-10-31T13:00:13;1.55;;;1.55;;
6119;SDS011;3090;52.496;13.298;2022-10-31T13:03:10;2.42;;;2.28;;
6119;SDS011;3090;52.496;13.298;2022-10-31T13:06:03;6.88;;;1.63;;
6119;SDS011;3090;52.496;13.298;2022-10-31T13:08:51;1.15;;;1.15;;
6119;SDS011;3090;52.496;13.298;2022-10-31T13:11:40;3.10;;;2.80;;
6119;SDS011;3090;52.496;13.298;2022-10-31T13:14:31;3.35;;;3.03;;
6119;SDS011;3090;52.496;13.298;2022-10-31T13:17:21;2.17;;;2.08;;
6119;SDS011;3090;52.496;13.298;2022-10-31T13:20:13;3.25;;;1.70;;
6119;SDS011;3090;52.496;13.298;2022-10-31T13:23:04;2.13;;;2.03;;
6119;SDS011;3090;52.496;13.298;2022-10-31T13:25:52;2.70;;;2.60;;
6119;SDS011;3090;52.496;13.298;2022-10-31T13:28:40;5.72;;;2.25;;
6119;SDS011;3090;52.496;13.298;2022-10-31T13:31:29;6.07;;;2.92;;
6119;SDS011;3090;52.496;13.298;2022-10-31T13:34:18;2.53;;;2.33;;
6119;SDS011;3090;52.496;13.298;2022-10-31T13:37:06;5.57;;;2.00;;
6119;SDS011;3090;52.496;13.298;2022-10-31T13:40:02;2.78;;;2.60;;
6119;SDS011;3090;52.496;13.298;2022-10-31T13:42:54;2.40;;;2.30;;
6119;SDS011;3090;52.496;13.298;2022-10-31T13:45:49;8.65;;;3.47;;
6119;SDS011;3090;52.496;13.298;2022-10-31T13:48:39;4.78;;;3.08;;
6119;SDS011;3090;52.496;13.298;2022-10-31T13:51:27;5.15;;;3.40;;
6119;SDS011;3090;52.496;13.298;2022-10-31T13:54:20;6.60;;;3.47;;
6119;SDS011;3090;52.496;13.298;2022-10-31T13:57:06;4.25;;;3.95;;
6119;SDS011;3090;52.496;13.298;2022-10-31T13:59:54;3.85;;;2.60;;
6119;SDS011;3090;52.496;13.298;2022-10-31T14:02:44;3.65;;;3.42;;
6119;SDS011;3090;52.496;13.298;2022-10-31T14:05:43;5.63;;;3.42;;
6119;SDS011;3090;52.496;13.298;2022-10-31T14:08:40;3.03;;;2.85;;
6119;SDS011;3090;52.496;13.298;2022-10-31T14:11:26;3.83;;;2.40;;
6119;SDS011;3090;52.496;13.298;2022-10-31T14:14:14;7.65;;;4.18;;
6119;SDS011;3090;52.496;13.298;2022-10-31T14:17:01;11.00;;;3.63;;
6119;SDS011;3090;52.496;13.298;2022-10-31T14:22:55;3.22;;;2.65;;
6119;SDS011;3090;52.496;13.298;2022-10-31T14:25:49;3.85;;;3.25;;
6119;SDS011;3090;52.496;13.298;2022-10-31T14:28:35;2.92;;;2.72;;
6119;SDS011;3090;52.496;13.298;2022-10-31T14:31:34;4.53;;;3.60;;
6119;SDS011;3090;52.496;13.298;2022-10-31T14:34:22;3.80;;;2.58;;
6119;SDS011;3090;52.496;13.298;2022-10-31T14:37:25;4.93;;;4.45;;
6119;SDS011;3090;52.496;13.298;2022-10-31T14:40:17;12.48;;;4.65;;
6119;SDS011;3090;52.496;13.298;2022-10-31T14:43:18;3.67;;;2.67;;
6119;SDS011;3090;52.496;13.298;2022-10-31T14:46:09;4.13;;;3.70;;
6119;SDS011;3090;52.496;13.298;2022-10-31T14:49:02;5.25;;;3.83;;
6119;SDS011;3090;52.496;13.298;2022-10-31T14:51:51;16.75;;;3.00;;
6119;SDS011;3090;52.496;13.298;2022-10-31T14:54:38;3.47;;;3.28;;
6119;SDS011;3090;52.496;13.298;2022-10-31T14:57:28;4.57;;;4.00;;
6119;SDS011;3090;52.496;13.298;2022-10-31T15:00:16;5.53;;;4.20;;
6119;SDS011;3090;52.496;13.298;2022-10-31T15:03:05;3.35;;;3.05;;
6119;SDS011;3090;52.496;13.298;2022-10-31T15:05:56;4.45;;;4.05;;
6119;SDS011;3090;52.496;13.298;2022-10-31T15:08:48;3.88;;;3.65;;
6119;SDS011;3090;52.496;13.298;2022-10-31T15:11:36;7.47;;;3.33;;
6119;SDS011;3090;52.496;13.298;2022-10-31T15:14:27;8.45;;;4.97;;
6119;SDS011;3090;52.496;13.298;2022-10-31T15:17:14;5.13;;;4.30;;
6119;SDS011;3090;52.496;13.298;2022-10-31T15:20:02;4.57;;;3.97;;
6119;SDS011;3090;52.496;13.298;2022-10-31T15:22:50;3.55;;;3.35;;
6119;SDS011;3090;52.496;13.298;2022-10-31T15:25:36;2.63;;;2.42;;
6119;SDS011;3090;52.496;13.298;2022-10-31T15:28:26;4.03;;;3.30;;
6119;SDS011;3090;52.496;13.298;2022-10-31T15:31:16;4.22;;;3.80;;
6119;SDS011;3090;52.496;13.298;2022-10-31T15:34:05;11.05;;;2.90;;
6119;SDS011;3090;52.496;13.298;2022-10-31T15:36:53;3.80;;;3.58;;
6119;SDS011;3090;52.496;13.298;2022-10-31T15:39:43;7.50;;;4.00;;
6119;SDS011;3090;52.496;13.298;2022-10-31T15:42:32;3.13;;;2.92;;
6119;SDS011;3090;52.496;13.298;2022-10-31T15:45:30;2.05;;;1.95;;
6119;SDS011;3090;52.496;13.298;2022-10-31T15:48:20;6.32;;;3.95;;
6119;SDS011;3090;52.496;13.298;2022-10-31T15:51:08;6.15;;;4.07;;
6119;SDS011;3090;52.496;13.298;2022-10-31T15:53:54;11.75;;;3.45;;
6119;SDS011;3090;52.496;13.298;2022-10-31T15:56:42;6.50;;;6.00;;
6119;SDS011;3090;52.496;13.298;2022-10-31T15:59:29;12.88;;;4.20;;
6119;SDS011;3090;52.496;13.298;2022-10-31T16:02:18;17.13;;;5.55;;
6119;SDS011;3090;52.496;13.298;2022-10-31T16:05:16;4.80;;;4.45;;
6119;SDS011;3090;52.496;13.298;2022-10-31T16:08:03;5.32;;;3.67;;
6119;SDS011;3090;52.496;13.298;2022-10-31T16:10:49;11.77;;;4.78;;
6119;SDS011;3090;52.496;13.298;2022-10-31T16:13:40;7.47;;;4.97;;
6119;SDS011;3090;52.496;13.298;2022-10-31T16:16:28;8.77;;;4.13;;
6119;SDS011;3090;52.496;13.298;2022-10-31T16:19:17;10.38;;;4.55;;
6119;SDS011;3090;52.496;13.298;2022-10-31T16:22:10;7.07;;;3.25;;
6119;SDS011;3090;52.496;13.298;2022-10-31T16:24:59;4.78;;;2.95;;
6119;SDS011;3090;52.496;13.298;2022-10-31T16:27:47;6.65;;;4.45;;
6119;SDS011;3090;52.496;13.298;2022-10-31T16:30:36;4.95;;;4.45;;
6119;SDS011;3090;52.496;13.298;2022-10-31T16:33:25;12.73;;;4.20;;
6119;SDS011;3090;52.496;13.298;2022-10-31T16:36:29;11.18;;;4.60;;
6119;SDS011;3090;52.496;13.298;2022-10-31T16:39:17;4.22;;;3.80;;
6119;SDS011;3090;52.496;13.298;2022-10-31T16:42:03;7.43;;;3.80;;
6119;SDS011;3090;52.496;13.298;2022-10-31T16:44:50;4.47;;;4.10;;
6119;SDS011;3090;52.496;13.298;2022-10-31T16:47:37;15.85;;;4.25;;
6119;SDS011;3090;52.496;13.298;2022-10-31T16:50:24;15.73;;;4.55;;
6119;SDS011;3090;52.496;13.298;2022-10-31T16:53:10;8.25;;;5.30;;
6119;SDS011;3090;52.496;13.298;2022-10-31T16:56:01;5.47;;;4.28;;
6119;SDS011;3090;52.496;13.298;2022-10-31T16:58:48;6.25;;;4.22;;
6119;SDS011;3090;52.496;13.298;2022-10-31T17:01:34;18.27;;;3.60;;
6119;SDS011;3090;52.496;13.298;2022-10-31T17:04:21;4.47;;;4.13;;
6119;SDS011;3090;52.496;13.298;2022-10-31T17:07:08;4.40;;;2.88;;
6119;SDS011;3090;52.496;13.298;2022-10-31T17:09:54;4.40;;;4.20;;
6119;SDS011;3090;52.496;13.298;2022-10-31T17:12:43;3.13;;;2.92;;
6119;SDS011;3090;52.496;13.298;2022-10-31T17:15:32;6.28;;;2.67;;
6119;SDS011;3090;52.496;13.298;2022-10-31T17:18:20;3.08;;;2.88;;
6119;SDS011;3090;52.496;13.298;2022-10-31T17:21:09;3.45;;;3.15;;
6119;SDS011;3090;52.496;13.298;2022-10-31T17:23:59;3.70;;;3.05;;
6119;SDS011;3090;52.496;13.298;2022-10-31T17:26:45;7.80;;;3.63;;